sensor_id;sensor_type;location;lat;lon;timestamp;P1;durP1;ratioP1;P2;durP2;ratioP2
71038;SDS011;58692;43.212;27.908;2023-05-08T00:02:28;16.45;;;6.97;;
71038;SDS011;58692;43.212;27.908;2023-05-08T00:04:54;15.53;;;6.73;;
71038;SDS011;58692;43.212;27.908;2023-05-08T00:07:20;15.15;;;7.10;;
71038;SDS011;58692;43.212;27.908;2023-05-08T00:09:45;16.27;;;6.97;;
71038;SDS011;58692;43.212;27.908;2023-05-08T00:12:11;14.43;;;7.10;;
71038;SDS011;58692;43.212;27.908;2023-05-08T00:14:36;14.20;;;7.07;;
71038;SDS011;58692;43.212;27.908;2023-05-08T00:17:02;14.37;;;7.10;;
71038;SDS011;58692;43.212;27.908;2023-05-08T00:19:27;14.80;;;7.47;;
71038;SDS011;58692;43.212;27.908;2023-05-08T00:21:53;15.02;;;7.10;;
71038;SDS011;58692;43.212;27.908;2023-05-08T00:24:18;13.63;;;7.17;;
71038;SDS011;58692;43.212;27.908;2023-05-08T00:26:44;15.03;;;6.67;;
71038;SDS011;58692;43.212;27.908;2023-05-08T00:29:09;14.73;;;7.85;;
71038;SDS011;58692;43.212;27.908;2023-05-08T00:31:35;16.07;;;9.07;;
71038;SDS011;58692;43.212;27.908;2023-05-08T00:34:01;15.10;;;9.48;;
71038;SDS011;58692;43.212;27.908;2023-05-08T00:36:26;17.67;;;9.60;;
71038;SDS011;58692;43.212;27.908;2023-05-08T00:38:52;16.58;;;9.60;;
71038;SDS011;58692;43.212;27.908;2023-05-08T00:41:18;18.73;;;10.40;;
71038;SDS011;58692;43.212;27.908;2023-05-08T00:43:43;18.17;;;10.80;;
71038;SDS011;58692;43.212;27.908;2023-05-08T00:46:08;22.75;;;10.75;;
71038;SDS011;58692;43.212;27.908;2023-05-08T00:48:34;17.60;;;11.00;;
71038;SDS011;58692;43.212;27.908;2023-05-08T00:51:01;19.70;;;11.90;;
71038;SDS011;58692;43.212;27.908;2023-05-08T00:53:29;19.67;;;11.82;;
71038;SDS011;58692;43.212;27.908;2023-05-08T00:55:57;21.33;;;11.73;;
71038;SDS011;58692;43.212;27.908;2023-05-08T00:58:24;17.77;;;10.00;;
71038;SDS011;58692;43.212;27.908;2023-05-08T01:00:51;14.73;;;9.18;;
71038;SDS011;58692;43.212;27.908;2023-05-08T01:03:19;16.48;;;9.10;;
71038;SDS011;58692;43.212;27.908;2023-05-08T01:05:46;17.50;;;8.57;;
71038;SDS011;58692;43.212;27.908;2023-05-08T01:08:12;16.33;;;8.37;;
71038;SDS011;58692;43.212;27.908;2023-05-08T01:13:46;14.18;;;8.15;;
71038;SDS011;58692;43.212;27.908;2023-05-08T01:16:34;15.97;;;8.53;;
71038;SDS011;58692;43.212;27.908;2023-05-08T01:19:06;14.20;;;8.13;;
71038;SDS011;58692;43.212;27.908;2023-05-08T01:21:59;17.05;;;8.95;;
71038;SDS011;58692;43.212;27.908;2023-05-08T01:27:34;17.63;;;9.40;;
71038;SDS011;58692;43.212;27.908;2023-05-08T01:33:03;28.00;;;19.02;;
71038;SDS011;58692;43.212;27.908;2023-05-08T01:35:42;26.73;;;17.73;;
71038;SDS011;58692;43.212;27.908;2023-05-08T01:38:18;31.27;;;19.10;;
71038;SDS011;58692;43.212;27.908;2023-05-08T01:40:51;30.38;;;20.38;;
71038;SDS011;58692;43.212;27.908;2023-05-08T01:43:29;26.07;;;16.97;;
71038;SDS011;58692;43.212;27.908;2023-05-08T01:46:01;22.75;;;14.70;;
71038;SDS011;58692;43.212;27.908;2023-05-08T01:48:46;21.17;;;12.55;;
71038;SDS011;58692;43.212;27.908;2023-05-08T01:51:17;19.70;;;11.63;;
71038;SDS011;58692;43.212;27.908;2023-05-08T01:53:47;15.63;;;9.48;;
71038;SDS011;58692;43.212;27.908;2023-05-08T01:56:17;17.17;;;9.27;;
71038;SDS011;58692;43.212;27.908;2023-05-08T01:58:46;15.65;;;8.98;;
71038;SDS011;58692;43.212;27.908;2023-05-08T02:01:15;14.20;;;8.80;;
71038;SDS011;58692;43.212;27.908;2023-05-08T02:03:44;16.73;;;8.18;;
71038;SDS011;58692;43.212;27.908;2023-05-08T02:06:11;16.33;;;7.95;;
71038;SDS011;58692;43.212;27.908;2023-05-08T02:08:40;13.53;;;7.50;;
71038;SDS011;58692;43.212;27.908;2023-05-08T02:11:08;17.75;;;7.85;;
71038;SDS011;58692;43.212;27.908;2023-05-08T02:13:37;14.25;;;7.75;;
71038;SDS011;58692;43.212;27.908;2023-05-08T02:16:03;14.07;;;8.10;;
71038;SDS011;58692;43.212;27.908;2023-05-08T02:18:32;15.15;;;8.45;;
71038;SDS011;58692;43.212;27.908;2023-05-08T02:20:58;14.30;;;8.43;;
71038;SDS011;58692;43.212;27.908;2023-05-08T02:23:26;14.95;;;7.60;;
71038;SDS011;58692;43.212;27.908;2023-05-08T02:25:53;13.82;;;7.88;;
71038;SDS011;58692;43.212;27.908;2023-05-08T02:28:20;15.63;;;8.07;;
71038;SDS011;58692;43.212;27.908;2023-05-08T02:30:47;15.57;;;8.60;;
71038;SDS011;58692;43.212;27.908;2023-05-08T02:33:14;14.17;;;8.67;;
71038;SDS011;58692;43.212;27.908;2023-05-08T02:35:43;15.40;;;8.35;;
71038;SDS011;58692;43.212;27.908;2023-05-08T02:38:11;16.30;;;8.63;;
71038;SDS011;58692;43.212;27.908;2023-05-08T02:40:39;14.52;;;8.73;;
71038;SDS011;58692;43.212;27.908;2023-05-08T02:43:08;16.10;;;8.80;;
71038;SDS011;58692;43.212;27.908;2023-05-08T02:45:37;15.97;;;8.60;;
71038;SDS011;58692;43.212;27.908;2023-05-08T02:48:11;16.60;;;8.43;;
71038;SDS011;58692;43.212;27.908;2023-05-08T02:50:44;19.13;;;8.47;;
71038;SDS011;58692;43.212;27.908;2023-05-08T02:53:27;14.07;;;8.45;;
71038;SDS011;58692;43.212;27.908;2023-05-08T02:56:02;13.40;;;8.20;;
71038;SDS011;58692;43.212;27.908;2023-05-08T02:58:36;14.43;;;7.63;;
71038;SDS011;58692;43.212;27.908;2023-05-08T03:01:11;15.40;;;7.97;;
71038;SDS011;58692;43.212;27.908;2023-05-08T03:03:44;16.43;;;8.57;;
71038;SDS011;58692;43.212;27.908;2023-05-08T03:06:16;16.52;;;8.27;;
71038;SDS011;58692;43.212;27.908;2023-05-08T03:08:44;16.40;;;8.10;;
71038;SDS011;58692;43.212;27.908;2023-05-08T03:11:12;17.40;;;7.85;;
71038;SDS011;58692;43.212;27.908;2023-05-08T03:13:40;19.60;;;7.47;;
71038;SDS011;58692;43.212;27.908;2023-05-08T03:16:10;17.60;;;7.70;;
71038;SDS011;58692;43.212;27.908;2023-05-08T03:18:42;15.32;;;7.78;;
71038;SDS011;58692;43.212;27.908;2023-05-08T03:21:13;14.15;;;7.70;;
71038;SDS011;58692;43.212;27.908;2023-05-08T03:23:42;15.50;;;8.35;;
71038;SDS011;58692;43.212;27.908;2023-05-08T03:26:08;17.17;;;8.18;;
71038;SDS011;58692;43.212;27.908;2023-05-08T03:28:34;14.60;;;7.37;;
71038;SDS011;58692;43.212;27.908;2023-05-08T03:31:01;16.33;;;7.88;;
71038;SDS011;58692;43.212;27.908;2023-05-08T03:33:29;13.90;;;8.07;;
71038;SDS011;58692;43.212;27.908;2023-05-08T03:35:55;16.08;;;8.57;;
71038;SDS011;58692;43.212;27.908;2023-05-08T03:38:21;21.13;;;8.23;;
71038;SDS011;58692;43.212;27.908;2023-05-08T03:40:47;14.93;;;8.13;;
71038;SDS011;58692;43.212;27.908;2023-05-08T03:43:14;16.40;;;8.05;;
71038;SDS011;58692;43.212;27.908;2023-05-08T03:45:40;17.08;;;7.70;;
71038;SDS011;58692;43.212;27.908;2023-05-08T03:48:06;15.53;;;8.27;;
71038;SDS011;58692;43.212;27.908;2023-05-08T03:50:33;20.08;;;9.13;;
71038;SDS011;58692;43.212;27.908;2023-05-08T03:53:00;15.57;;;8.50;;
71038;SDS011;58692;43.212;27.908;2023-05-08T03:55:26;17.70;;;9.23;;
71038;SDS011;58692;43.212;27.908;2023-05-08T03:57:55;14.68;;;8.40;;
71038;SDS011;58692;43.212;27.908;2023-05-08T04:00:50;15.57;;;8.35;;
71038;SDS011;58692;43.212;27.908;2023-05-08T04:03:31;14.57;;;8.40;;
71038;SDS011;58692;43.212;27.908;2023-05-08T04:06:10;17.95;;;9.73;;
71038;SDS011;58692;43.212;27.908;2023-05-08T04:08:41;18.50;;;8.57;;
71038;SDS011;58692;43.212;27.908;2023-05-08T04:13:55;15.88;;;8.48;;
71038;SDS011;58692;43.212;27.908;2023-05-08T04:16:25;17.27;;;9.30;;
71038;SDS011;58692;43.212;27.908;2023-05-08T04:18:56;16.10;;;8.85;;
71038;SDS011;58692;43.212;27.908;2023-05-08T04:21:25;18.48;;;8.70;;
71038;SDS011;58692;43.212;27.908;2023-05-08T04:23:53;16.77;;;8.80;;
71038;SDS011;58692;43.212;27.908;2023-05-08T04:26:21;19.95;;;9.30;;
71038;SDS011;58692;43.212;27.908;2023-05-08T04:28:47;18.83;;;10.20;;
71038;SDS011;58692;43.212;27.908;2023-05-08T04:31:14;19.95;;;9.10;;
71038;SDS011;58692;43.212;27.908;2023-05-08T04:33:41;19.30;;;9.20;;
71038;SDS011;58692;43.212;27.908;2023-05-08T04:36:12;19.97;;;8.37;;
71038;SDS011;58692;43.212;27.908;2023-05-08T04:38:38;12.55;;;6.45;;
71038;SDS011;58692;43.212;27.908;2023-05-08T04:41:04;10.75;;;5.47;;
71038;SDS011;58692;43.212;27.908;2023-05-08T04:43:30;14.40;;;4.30;;
71038;SDS011;58692;43.212;27.908;2023-05-08T04:45:55;10.77;;;4.10;;
71038;SDS011;58692;43.212;27.908;2023-05-08T04:48:21;8.53;;;3.97;;
71038;SDS011;58692;43.212;27.908;2023-05-08T04:50:47;11.13;;;4.70;;
71038;SDS011;58692;43.212;27.908;2023-05-08T04:53:12;10.37;;;4.17;;
71038;SDS011;58692;43.212;27.908;2023-05-08T04:55:38;8.48;;;4.13;;
71038;SDS011;58692;43.212;27.908;2023-05-08T04:58:04;10.33;;;4.43;;
71038;SDS011;58692;43.212;27.908;2023-05-08T05:00:29;9.80;;;4.22;;
71038;SDS011;58692;43.212;27.908;2023-05-08T05:02:55;10.27;;;4.70;;
71038;SDS011;58692;43.212;27.908;2023-05-08T05:05:20;12.03;;;4.60;;
71038;SDS011;58692;43.212;27.908;2023-05-08T05:07:46;10.15;;;4.20;;
71038;SDS011;58692;43.212;27.908;2023-05-08T05:10:11;10.97;;;4.30;;
71038;SDS011;58692;43.212;27.908;2023-05-08T05:12:37;8.60;;;4.00;;
71038;SDS011;58692;43.212;27.908;2023-05-08T05:15:02;11.18;;;4.93;;
71038;SDS011;58692;43.212;27.908;2023-05-08T05:17:29;12.13;;;4.90;;
71038;SDS011;58692;43.212;27.908;2023-05-08T05:19:55;8.70;;;4.18;;
71038;SDS011;58692;43.212;27.908;2023-05-08T05:22:21;8.70;;;4.20;;
71038;SDS011;58692;43.212;27.908;2023-05-08T05:24:47;9.65;;;4.75;;
71038;SDS011;58692;43.212;27.908;2023-05-08T05:27:12;9.30;;;4.33;;
71038;SDS011;58692;43.212;27.908;2023-05-08T05:29:38;11.83;;;4.00;;
71038;SDS011;58692;43.212;27.908;2023-05-08T05:32:03;6.47;;;3.20;;
71038;SDS011;58692;43.212;27.908;2023-05-08T05:34:31;7.53;;;3.20;;
71038;SDS011;58692;43.212;27.908;2023-05-08T05:36:56;8.55;;;3.60;;
71038;SDS011;58692;43.212;27.908;2023-05-08T05:39:22;7.07;;;3.30;;
71038;SDS011;58692;43.212;27.908;2023-05-08T05:41:47;6.67;;;3.10;;
71038;SDS011;58692;43.212;27.908;2023-05-08T05:44:13;7.15;;;3.15;;
71038;SDS011;58692;43.212;27.908;2023-05-08T05:46:38;8.77;;;3.53;;
71038;SDS011;58692;43.212;27.908;2023-05-08T05:49:04;9.33;;;3.53;;
71038;SDS011;58692;43.212;27.908;2023-05-08T05:51:29;10.15;;;3.40;;
71038;SDS011;58692;43.212;27.908;2023-05-08T05:53:55;10.27;;;3.60;;
71038;SDS011;58692;43.212;27.908;2023-05-08T05:56:21;7.05;;;3.47;;
71038;SDS011;58692;43.212;27.908;2023-05-08T05:58:47;6.93;;;3.33;;
71038;SDS011;58692;43.212;27.908;2023-05-08T06:01:13;6.77;;;3.23;;
71038;SDS011;58692;43.212;27.908;2023-05-08T06:03:38;8.15;;;3.33;;
71038;SDS011;58692;43.212;27.908;2023-05-08T06:06:04;9.20;;;3.60;;
71038;SDS011;58692;43.212;27.908;2023-05-08T06:08:30;8.60;;;3.40;;
71038;SDS011;58692;43.212;27.908;2023-05-08T06:10:55;7.73;;;3.67;;
71038;SDS011;58692;43.212;27.908;2023-05-08T06:13:21;9.53;;;3.47;;
71038;SDS011;58692;43.212;27.908;2023-05-08T06:15:46;7.78;;;3.72;;
71038;SDS011;58692;43.212;27.908;2023-05-08T06:18:12;9.60;;;4.23;;
71038;SDS011;58692;43.212;27.908;2023-05-08T06:20:37;9.37;;;4.40;;
71038;SDS011;58692;43.212;27.908;2023-05-08T06:23:03;9.93;;;4.32;;
71038;SDS011;58692;43.212;27.908;2023-05-08T06:25:29;8.60;;;4.93;;
71038;SDS011;58692;43.212;27.908;2023-05-08T06:27:55;9.35;;;4.32;;
71038;SDS011;58692;43.212;27.908;2023-05-08T06:30:21;11.70;;;4.55;;
71038;SDS011;58692;43.212;27.908;2023-05-08T06:32:47;10.73;;;4.60;;
71038;SDS011;58692;43.212;27.908;2023-05-08T06:35:12;9.35;;;3.90;;
71038;SDS011;58692;43.212;27.908;2023-05-08T06:37:42;10.10;;;4.15;;
71038;SDS011;58692;43.212;27.908;2023-05-08T06:40:08;10.03;;;4.20;;
71038;SDS011;58692;43.212;27.908;2023-05-08T06:42:35;9.82;;;4.22;;
71038;SDS011;58692;43.212;27.908;2023-05-08T06:45:00;9.53;;;4.13;;
71038;SDS011;58692;43.212;27.908;2023-05-08T06:47:26;10.10;;;3.88;;
71038;SDS011;58692;43.212;27.908;2023-05-08T06:49:52;9.05;;;4.22;;
71038;SDS011;58692;43.212;27.908;2023-05-08T06:52:18;7.77;;;3.77;;
71038;SDS011;58692;43.212;27.908;2023-05-08T06:54:44;11.32;;;4.30;;
71038;SDS011;58692;43.212;27.908;2023-05-08T06:57:10;7.57;;;4.00;;
71038;SDS011;58692;43.212;27.908;2023-05-08T06:59:38;9.13;;;3.60;;
71038;SDS011;58692;43.212;27.908;2023-05-08T07:02:04;7.55;;;3.50;;
71038;SDS011;58692;43.212;27.908;2023-05-08T07:04:29;10.63;;;4.33;;
71038;SDS011;58692;43.212;27.908;2023-05-08T07:06:55;10.43;;;4.43;;
71038;SDS011;58692;43.212;27.908;2023-05-08T07:09:20;10.23;;;3.97;;
71038;SDS011;58692;43.212;27.908;2023-05-08T07:11:46;11.03;;;4.60;;
71038;SDS011;58692;43.212;27.908;2023-05-08T07:14:12;8.93;;;3.95;;
71038;SDS011;58692;43.212;27.908;2023-05-08T07:16:37;9.77;;;4.13;;
71038;SDS011;58692;43.212;27.908;2023-05-08T07:19:03;10.17;;;3.67;;
71038;SDS011;58692;43.212;27.908;2023-05-08T07:21:28;9.57;;;4.20;;
71038;SDS011;58692;43.212;27.908;2023-05-08T07:23:54;9.40;;;4.50;;
71038;SDS011;58692;43.212;27.908;2023-05-08T07:26:20;9.60;;;4.67;;
71038;SDS011;58692;43.212;27.908;2023-05-08T07:28:46;8.27;;;4.13;;
71038;SDS011;58692;43.212;27.908;2023-05-08T07:31:12;11.68;;;4.60;;
71038;SDS011;58692;43.212;27.908;2023-05-08T07:33:38;8.97;;;4.53;;
71038;SDS011;58692;43.212;27.908;2023-05-08T07:36:03;9.93;;;4.60;;
71038;SDS011;58692;43.212;27.908;2023-05-08T07:38:29;10.95;;;4.57;;
71038;SDS011;58692;43.212;27.908;2023-05-08T07:40:54;10.00;;;4.17;;
71038;SDS011;58692;43.212;27.908;2023-05-08T07:43:22;11.57;;;4.70;;
71038;SDS011;58692;43.212;27.908;2023-05-08T07:45:48;12.65;;;5.13;;
71038;SDS011;58692;43.212;27.908;2023-05-08T07:48:13;9.10;;;4.30;;
71038;SDS011;58692;43.212;27.908;2023-05-08T07:50:39;9.67;;;4.77;;
71038;SDS011;58692;43.212;27.908;2023-05-08T07:53:04;8.07;;;4.00;;
71038;SDS011;58692;43.212;27.908;2023-05-08T07:55:30;9.80;;;3.55;;
71038;SDS011;58692;43.212;27.908;2023-05-08T07:57:56;8.82;;;3.90;;
71038;SDS011;58692;43.212;27.908;2023-05-08T08:00:23;10.10;;;3.47;;
71038;SDS011;58692;43.212;27.908;2023-05-08T08:02:51;9.32;;;3.75;;
71038;SDS011;58692;43.212;27.908;2023-05-08T08:05:17;8.50;;;4.00;;
71038;SDS011;58692;43.212;27.908;2023-05-08T08:07:42;10.03;;;3.63;;
71038;SDS011;58692;43.212;27.908;2023-05-08T08:10:08;9.17;;;3.33;;
71038;SDS011;58692;43.212;27.908;2023-05-08T08:12:34;7.07;;;3.55;;
71038;SDS011;58692;43.212;27.908;2023-05-08T08:14:59;9.67;;;3.40;;
71038;SDS011;58692;43.212;27.908;2023-05-08T08:17:25;9.70;;;3.40;;
71038;SDS011;58692;43.212;27.908;2023-05-08T08:19:50;8.57;;;3.73;;
71038;SDS011;58692;43.212;27.908;2023-05-08T08:22:16;9.63;;;3.70;;
71038;SDS011;58692;43.212;27.908;2023-05-08T08:24:41;10.17;;;4.23;;
71038;SDS011;58692;43.212;27.908;2023-05-08T08:27:07;10.33;;;3.73;;
71038;SDS011;58692;43.212;27.908;2023-05-08T08:29:32;9.18;;;3.38;;
71038;SDS011;58692;43.212;27.908;2023-05-08T08:31:58;8.20;;;3.93;;
71038;SDS011;58692;43.212;27.908;2023-05-08T08:34:24;10.68;;;3.60;;
71038;SDS011;58692;43.212;27.908;2023-05-08T08:36:50;8.37;;;3.30;;
71038;SDS011;58692;43.212;27.908;2023-05-08T08:39:15;9.83;;;3.60;;
71038;SDS011;58692;43.212;27.908;2023-05-08T08:41:41;9.35;;;4.20;;
71038;SDS011;58692;43.212;27.908;2023-05-08T08:44:06;8.93;;;3.20;;
71038;SDS011;58692;43.212;27.908;2023-05-08T08:46:32;9.83;;;3.53;;
71038;SDS011;58692;43.212;27.908;2023-05-08T08:49:00;8.20;;;3.33;;
71038;SDS011;58692;43.212;27.908;2023-05-08T08:51:31;9.43;;;3.83;;
71038;SDS011;58692;43.212;27.908;2023-05-08T08:54:07;8.20;;;3.53;;
71038;SDS011;58692;43.212;27.908;2023-05-08T08:56:35;9.18;;;3.53;;
71038;SDS011;58692;43.212;27.908;2023-05-08T08:59:02;7.03;;;3.20;;
71038;SDS011;58692;43.212;27.908;2023-05-08T09:01:29;7.30;;;3.80;;
71038;SDS011;58692;43.212;27.908;2023-05-08T09:03:58;9.82;;;3.75;;
71038;SDS011;58692;43.212;27.908;2023-05-08T09:06:24;11.00;;;4.38;;
71038;SDS011;58692;43.212;27.908;2023-05-08T09:08:53;9.23;;;4.23;;
71038;SDS011;58692;43.212;27.908;2023-05-08T09:11:22;7.82;;;4.35;;
71038;SDS011;58692;43.212;27.908;2023-05-08T09:13:48;11.38;;;4.70;;
71038;SDS011;58692;43.212;27.908;2023-05-08T09:16:14;9.13;;;4.07;;
71038;SDS011;58692;43.212;27.908;2023-05-08T09:18:40;13.60;;;4.17;;
71038;SDS011;58692;43.212;27.908;2023-05-08T09:21:06;9.43;;;3.70;;
71038;SDS011;58692;43.212;27.908;2023-05-08T09:23:34;9.93;;;3.87;;
71038;SDS011;58692;43.212;27.908;2023-05-08T09:26:00;11.13;;;4.15;;
71038;SDS011;58692;43.212;27.908;2023-05-08T09:28:25;9.10;;;3.80;;
71038;SDS011;58692;43.212;27.908;2023-05-08T09:30:53;7.95;;;3.97;;
71038;SDS011;58692;43.212;27.908;2023-05-08T09:33:21;9.10;;;3.80;;
71038;SDS011;58692;43.212;27.908;2023-05-08T09:35:49;10.20;;;3.83;;
71038;SDS011;58692;43.212;27.908;2023-05-08T09:43:40;9.52;;;3.63;;
71038;SDS011;58692;43.212;27.908;2023-05-08T09:48:48;8.13;;;3.50;;
71038;SDS011;58692;43.212;27.908;2023-05-08T09:51:15;7.57;;;3.50;;
71038;SDS011;58692;43.212;27.908;2023-05-08T09:53:40;7.55;;;3.60;;
71038;SDS011;58692;43.212;27.908;2023-05-08T09:56:06;5.87;;;3.27;;
71038;SDS011;58692;43.212;27.908;2023-05-08T09:58:39;7.85;;;3.70;;
71038;SDS011;58692;43.212;27.908;2023-05-08T10:01:06;10.07;;;3.57;;
71038;SDS011;58692;43.212;27.908;2023-05-08T10:06:14;8.63;;;3.58;;
71038;SDS011;58692;43.212;27.908;2023-05-08T10:08:40;9.82;;;3.50;;
71038;SDS011;58692;43.212;27.908;2023-05-08T10:11:16;7.10;;;3.43;;
71038;SDS011;58692;43.212;27.908;2023-05-08T10:13:43;10.38;;;3.20;;
71038;SDS011;58692;43.212;27.908;2023-05-08T10:16:12;5.82;;;3.40;;
71038;SDS011;58692;43.212;27.908;2023-05-08T10:18:42;7.22;;;3.00;;
71038;SDS011;58692;43.212;27.908;2023-05-08T10:21:13;5.88;;;2.95;;
71038;SDS011;58692;43.212;27.908;2023-05-08T10:23:40;8.80;;;3.57;;
71038;SDS011;58692;43.212;27.908;2023-05-08T10:26:09;8.95;;;3.65;;
71038;SDS011;58692;43.212;27.908;2023-05-08T10:31:21;9.25;;;3.35;;
71038;SDS011;58692;43.212;27.908;2023-05-08T10:33:50;8.27;;;3.13;;
71038;SDS011;58692;43.212;27.908;2023-05-08T10:36:19;7.00;;;3.30;;
71038;SDS011;58692;43.212;27.908;2023-05-08T10:38:47;8.48;;;3.28;;
71038;SDS011;58692;43.212;27.908;2023-05-08T10:41:14;10.70;;;4.18;;
71038;SDS011;58692;43.212;27.908;2023-05-08T10:43:41;6.95;;;3.40;;
71038;SDS011;58692;43.212;27.908;2023-05-08T10:46:08;8.15;;;3.45;;
71038;SDS011;58692;43.212;27.908;2023-05-08T10:48:49;7.97;;;3.57;;
71038;SDS011;58692;43.212;27.908;2023-05-08T10:54:12;7.80;;;2.95;;
71038;SDS011;58692;43.212;27.908;2023-05-08T10:56:43;7.88;;;2.92;;
71038;SDS011;58692;43.212;27.908;2023-05-08T10:59:16;8.27;;;3.53;;
71038;SDS011;58692;43.212;27.908;2023-05-08T11:01:47;5.50;;;3.10;;
71038;SDS011;58692;43.212;27.908;2023-05-08T11:04:18;5.82;;;2.80;;
71038;SDS011;58692;43.212;27.908;2023-05-08T11:06:46;6.37;;;2.67;;
71038;SDS011;58692;43.212;27.908;2023-05-08T11:09:18;6.65;;;3.13;;
71038;SDS011;58692;43.212;27.908;2023-05-08T11:11:49;8.27;;;2.95;;
71038;SDS011;58692;43.212;27.908;2023-05-08T11:14:23;8.30;;;3.00;;
71038;SDS011;58692;43.212;27.908;2023-05-08T11:19:34;10.00;;;3.30;;
71038;SDS011;58692;43.212;27.908;2023-05-08T11:24:48;7.25;;;3.10;;
71038;SDS011;58692;43.212;27.908;2023-05-08T11:27:16;8.32;;;3.20;;
71038;SDS011;58692;43.212;27.908;2023-05-08T11:29:41;8.00;;;3.30;;
71038;SDS011;58692;43.212;27.908;2023-05-08T11:32:09;6.78;;;3.00;;
71038;SDS011;58692;43.212;27.908;2023-05-08T11:34:44;6.93;;;2.90;;
71038;SDS011;58692;43.212;27.908;2023-05-08T11:37:19;8.32;;;3.47;;
71038;SDS011;58692;43.212;27.908;2023-05-08T11:39:48;7.13;;;3.30;;
71038;SDS011;58692;43.212;27.908;2023-05-08T11:47:36;8.45;;;3.70;;
71038;SDS011;58692;43.212;27.908;2023-05-08T11:50:04;9.07;;;3.20;;
71038;SDS011;58692;43.212;27.908;2023-05-08T11:52:31;6.00;;;2.90;;
71038;SDS011;58692;43.212;27.908;2023-05-08T11:55:00;6.70;;;2.83;;
71038;SDS011;58692;43.212;27.908;2023-05-08T11:57:28;7.68;;;3.10;;
71038;SDS011;58692;43.212;27.908;2023-05-08T11:59:54;8.05;;;3.50;;
71038;SDS011;58692;43.212;27.908;2023-05-08T12:02:32;6.93;;;3.30;;
71038;SDS011;58692;43.212;27.908;2023-05-08T12:05:00;7.18;;;3.20;;
71038;SDS011;58692;43.212;27.908;2023-05-08T12:07:25;10.53;;;4.03;;
71038;SDS011;58692;43.212;27.908;2023-05-08T12:09:51;8.82;;;3.92;;
71038;SDS011;58692;43.212;27.908;2023-05-08T12:12:17;9.70;;;3.90;;
71038;SDS011;58692;43.212;27.908;2023-05-08T12:14:42;6.53;;;3.50;;
71038;SDS011;58692;43.212;27.908;2023-05-08T12:17:08;7.80;;;4.20;;
71038;SDS011;58692;43.212;27.908;2023-05-08T12:19:34;9.40;;;4.15;;
71038;SDS011;58692;43.212;27.908;2023-05-08T12:21:59;7.40;;;4.33;;
71038;SDS011;58692;43.212;27.908;2023-05-08T12:24:25;11.83;;;4.37;;
71038;SDS011;58692;43.212;27.908;2023-05-08T12:26:52;12.90;;;4.70;;
71038;SDS011;58692;43.212;27.908;2023-05-08T12:29:19;10.43;;;4.18;;
71038;SDS011;58692;43.212;27.908;2023-05-08T12:31:45;10.45;;;4.68;;
71038;SDS011;58692;43.212;27.908;2023-05-08T12:34:11;10.70;;;4.50;;
71038;SDS011;58692;43.212;27.908;2023-05-08T12:36:37;9.70;;;4.50;;
71038;SDS011;58692;43.212;27.908;2023-05-08T12:39:11;10.03;;;4.20;;
71038;SDS011;58692;43.212;27.908;2023-05-08T12:41:41;10.77;;;4.50;;
71038;SDS011;58692;43.212;27.908;2023-05-08T12:46:54;9.98;;;4.28;;
71038;SDS011;58692;43.212;27.908;2023-05-08T12:49:29;8.50;;;3.87;;
71038;SDS011;58692;43.212;27.908;2023-05-08T12:54:37;10.60;;;4.30;;
71038;SDS011;58692;43.212;27.908;2023-05-08T12:57:13;8.82;;;4.53;;
71038;SDS011;58692;43.212;27.908;2023-05-08T12:59:41;9.13;;;4.57;;
71038;SDS011;58692;43.212;27.908;2023-05-08T13:02:11;8.70;;;4.10;;
71038;SDS011;58692;43.212;27.908;2023-05-08T13:04:39;9.38;;;3.95;;
71038;SDS011;58692;43.212;27.908;2023-05-08T13:07:04;8.80;;;3.53;;
71038;SDS011;58692;43.212;27.908;2023-05-08T13:09:30;7.73;;;3.50;;
71038;SDS011;58692;43.212;27.908;2023-05-08T13:11:55;9.10;;;3.70;;
71038;SDS011;58692;43.212;27.908;2023-05-08T13:14:21;9.27;;;3.70;;
71038;SDS011;58692;43.212;27.908;2023-05-08T13:16:46;9.77;;;3.30;;
71038;SDS011;58692;43.212;27.908;2023-05-08T13:19:12;7.60;;;3.57;;
71038;SDS011;58692;43.212;27.908;2023-05-08T13:21:40;7.30;;;3.20;;
71038;SDS011;58692;43.212;27.908;2023-05-08T13:24:05;6.05;;;3.00;;
71038;SDS011;58692;43.212;27.908;2023-05-08T13:26:31;7.20;;;2.83;;
71038;SDS011;58692;43.212;27.908;2023-05-08T13:28:57;8.15;;;3.50;;
71038;SDS011;58692;43.212;27.908;2023-05-08T13:31:22;5.90;;;3.10;;
71038;SDS011;58692;43.212;27.908;2023-05-08T13:33:48;9.75;;;3.65;;
71038;SDS011;58692;43.212;27.908;2023-05-08T13:36:14;7.27;;;3.40;;
71038;SDS011;58692;43.212;27.908;2023-05-08T13:38:39;7.72;;;3.70;;
71038;SDS011;58692;43.212;27.908;2023-05-08T13:41:05;6.67;;;3.13;;
71038;SDS011;58692;43.212;27.908;2023-05-08T13:43:30;7.67;;;3.87;;
71038;SDS011;58692;43.212;27.908;2023-05-08T13:45:56;7.87;;;3.40;;
71038;SDS011;58692;43.212;27.908;2023-05-08T13:48:21;8.80;;;3.73;;
71038;SDS011;58692;43.212;27.908;2023-05-08T13:50:47;9.60;;;3.70;;
71038;SDS011;58692;43.212;27.908;2023-05-08T13:53:12;7.22;;;3.90;;
71038;SDS011;58692;43.212;27.908;2023-05-08T13:55:39;8.27;;;3.93;;
71038;SDS011;58692;43.212;27.908;2023-05-08T13:58:06;7.93;;;4.00;;
71038;SDS011;58692;43.212;27.908;2023-05-08T14:00:31;7.90;;;3.70;;
71038;SDS011;58692;43.212;27.908;2023-05-08T14:02:58;8.15;;;3.80;;
71038;SDS011;58692;43.212;27.908;2023-05-08T14:05:24;10.23;;;3.97;;
71038;SDS011;58692;43.212;27.908;2023-05-08T14:07:49;9.88;;;3.58;;
71038;SDS011;58692;43.212;27.908;2023-05-08T14:10:15;9.03;;;4.03;;
71038;SDS011;58692;43.212;27.908;2023-05-08T14:12:41;10.27;;;3.90;;
71038;SDS011;58692;43.212;27.908;2023-05-08T14:15:07;8.63;;;3.77;;
71038;SDS011;58692;43.212;27.908;2023-05-08T14:17:33;8.80;;;4.00;;
71038;SDS011;58692;43.212;27.908;2023-05-08T14:19:59;7.93;;;3.45;;
71038;SDS011;58692;43.212;27.908;2023-05-08T14:22:25;8.47;;;3.73;;
71038;SDS011;58692;43.212;27.908;2023-05-08T14:24:50;9.57;;;4.10;;
71038;SDS011;58692;43.212;27.908;2023-05-08T14:27:17;10.55;;;3.53;;
71038;SDS011;58692;43.212;27.908;2023-05-08T14:29:42;10.47;;;4.00;;
71038;SDS011;58692;43.212;27.908;2023-05-08T14:32:08;10.57;;;3.90;;
71038;SDS011;58692;43.212;27.908;2023-05-08T14:34:35;7.25;;;3.47;;
71038;SDS011;58692;43.212;27.908;2023-05-08T14:37:00;10.63;;;3.70;;
71038;SDS011;58692;43.212;27.908;2023-05-08T14:39:26;5.93;;;3.20;;
71038;SDS011;58692;43.212;27.908;2023-05-08T14:41:52;6.50;;;2.80;;
71038;SDS011;58692;43.212;27.908;2023-05-08T14:44:18;7.93;;;3.30;;
71038;SDS011;58692;43.212;27.908;2023-05-08T14:46:43;11.55;;;3.63;;
71038;SDS011;58692;43.212;27.908;2023-05-08T14:49:09;7.97;;;3.10;;
71038;SDS011;58692;43.212;27.908;2023-05-08T14:51:35;8.57;;;3.40;;
71038;SDS011;58692;43.212;27.908;2023-05-08T14:54:00;8.40;;;3.60;;
71038;SDS011;58692;43.212;27.908;2023-05-08T14:56:26;8.43;;;3.17;;
71038;SDS011;58692;43.212;27.908;2023-05-08T14:58:51;10.73;;;3.97;;
71038;SDS011;58692;43.212;27.908;2023-05-08T15:01:19;8.93;;;3.92;;
71038;SDS011;58692;43.212;27.908;2023-05-08T15:03:45;13.55;;;3.47;;
71038;SDS011;58692;43.212;27.908;2023-05-08T15:06:17;8.63;;;3.60;;
71038;SDS011;58692;43.212;27.908;2023-05-08T15:08:44;8.67;;;3.50;;
71038;SDS011;58692;43.212;27.908;2023-05-08T15:11:10;10.60;;;3.58;;
71038;SDS011;58692;43.212;27.908;2023-05-08T15:13:35;11.70;;;4.10;;
71038;SDS011;58692;43.212;27.908;2023-05-08T15:16:01;10.17;;;3.73;;